createdAt,value
2023-04-16T00:01:01.600Z,5.00
2023-04-16T00:03:28.403Z,7.60
2023-04-16T00:05:59.216Z,7.53
2023-04-16T00:08:26.065Z,7.90
2023-04-16T00:10:55.684Z,7.78
2023-04-16T00:13:22.725Z,7.35
2023-04-16T00:15:49.464Z,7.85
2023-04-16T00:18:16.324Z,5.57
2023-04-16T00:20:43.015Z,7.93
2023-04-16T00:23:09.726Z,8.35
2023-04-16T00:25:36.446Z,8.50
2023-04-16T00:28:05.450Z,8.20
2023-04-16T00:30:32.128Z,8.73
2023-04-16T00:32:58.932Z,8.50
2023-04-16T00:35:25.852Z,8.13
2023-04-16T00:37:52.814Z,8.30
2023-04-16T00:40:19.486Z,8.98
2023-04-16T00:42:46.682Z,8.93
2023-04-16T00:45:13.463Z,9.15
2023-04-16T00:47:40.341Z,8.85
2023-04-16T00:50:07.646Z,8.07
2023-04-16T00:52:35.195Z,8.73
2023-04-16T00:55:02.065Z,8.38
2023-04-16T00:57:28.924Z,8.73
2023-04-16T00:59:56.351Z,9.48
2023-04-16T01:02:23.503Z,8.93
2023-04-16T01:07:17.735Z,10.07
2023-04-16T01:09:44.409Z,9.48
2023-04-16T01:12:11.166Z,10.10
2023-04-16T01:14:38.095Z,10.23
2023-04-16T01:17:04.830Z,10.73
2023-04-16T01:19:31.547Z,9.23
2023-04-16T01:21:59.012Z,9.75
2023-04-16T01:26:52.484Z,10.05
2023-04-16T01:29:19.214Z,10.35
2023-04-16T01:31:48.435Z,8.48
2023-04-16T01:34:36.122Z,9.30
2023-04-16T01:37:03.962Z,9.63
2023-04-16T01:39:30.898Z,8.20
2023-04-16T01:44:25.450Z,9.70
2023-04-16T01:46:52.295Z,10.50
2023-04-16T01:49:19.049Z,9.38
2023-04-16T01:51:45.751Z,9.30
2023-04-16T01:54:12.726Z,9.35
2023-04-16T01:56:39.749Z,8.57
2023-04-16T01:59:06.622Z,9.18
2023-04-16T02:01:38.619Z,10.65
2023-04-16T02:04:05.670Z,10.18
2023-04-16T02:06:32.433Z,10.70
2023-04-16T02:08:59.144Z,9.63
2023-04-16T02:11:26.577Z,11.27
2023-04-16T02:13:53.998Z,11.77
2023-04-16T02:16:21.059Z,12.18
2023-04-16T02:18:59.520Z,13.18
2023-04-16T02:21:29.434Z,12.05
2023-04-16T02:23:56.201Z,11.93
2023-04-16T02:26:27.413Z,12.10
2023-04-16T02:28:57.703Z,12.20
2023-04-16T02:31:31.466Z,11.18
2023-04-16T02:36:25.712Z,12.20
2023-04-16T02:38:54.852Z,11.85
2023-04-16T02:41:21.552Z,12.13
2023-04-16T02:43:48.284Z,11.25
2023-04-16T02:46:15.078Z,11.27
2023-04-16T02:48:41.883Z,10.73
2023-04-16T02:51:08.564Z,10.07
2023-04-16T02:53:35.530Z,8.57
2023-04-16T02:56:02.446Z,8.18
2023-04-16T02:58:29.132Z,7.65
2023-04-16T03:00:56.018Z,8.05
2023-04-16T03:03:22.925Z,8.10
2023-04-16T03:06:40.334Z,8.70
2023-04-16T03:09:32.381Z,8.00
2023-04-16T03:11:59.046Z,8.20
2023-04-16T03:14:25.928Z,8.00
2023-04-16T03:16:52.597Z,5.78
2023-04-16T03:19:19.286Z,3.90
2023-04-16T03:21:45.960Z,3.70
2023-04-16T03:24:13.315Z,3.58
2023-04-16T03:29:07.712Z,3.97
2023-04-16T03:34:01.608Z,4.40
2023-04-16T03:36:28.468Z,4.88
2023-04-16T03:38:56.229Z,4.78
2023-04-16T03:41:23.332Z,4.95
2023-04-16T03:43:50.121Z,4.15
2023-04-16T03:46:16.959Z,4.88
2023-04-16T03:48:43.652Z,5.82
2023-04-16T03:51:10.509Z,4.90
2023-04-16T03:53:38.515Z,5.10
2023-04-16T03:56:05.570Z,5.97
2023-04-16T03:58:32.246Z,6.68
2023-04-16T04:00:58.915Z,5.70
2023-04-16T04:03:26.380Z,10.10
2023-04-16T04:05:54.554Z,10.27
2023-04-16T04:08:26.415Z,10.85
2023-04-16T04:10:53.369Z,11.05
2023-04-16T04:13:22.549Z,11.85
2023-04-16T04:15:50.889Z,13.40
2023-04-16T04:18:17.825Z,12.45
2023-04-16T04:20:45.094Z,8.75
2023-04-16T04:23:15.403Z,8.48
2023-04-16T04:25:42.196Z,7.75
2023-04-16T04:28:08.933Z,7.75
2023-04-16T04:30:38.383Z,6.47
2023-04-16T04:33:06.315Z,6.22
2023-04-16T04:35:33.437Z,8.38
2023-04-16T04:38:03.420Z,8.63
2023-04-16T04:40:30.799Z,7.03
2023-04-16T04:42:57.565Z,5.95
2023-04-16T04:45:25.591Z,5.75
2023-04-16T04:47:53.826Z,6.15
2023-04-16T04:50:21.686Z,6.57
2023-04-16T04:52:48.362Z,6.30
2023-04-16T04:55:16.048Z,7.30
2023-04-16T04:57:42.817Z,8.30
2023-04-16T05:00:10.529Z,8.85
2023-04-16T05:02:47.637Z,7.90
2023-04-16T05:05:14.418Z,8.13
2023-04-16T05:07:41.098Z,7.35
2023-04-16T05:10:08.556Z,6.22
2023-04-16T05:12:35.237Z,5.57
2023-04-16T05:15:01.911Z,4.30
2023-04-16T05:17:28.615Z,5.00
2023-04-16T05:19:55.330Z,4.72
2023-04-16T05:22:21.967Z,4.43
2023-04-16T05:24:48.632Z,5.85
2023-04-16T05:27:15.571Z,6.15
2023-04-16T05:29:42.198Z,3.78
2023-04-16T05:32:09.210Z,4.68
2023-04-16T05:34:35.857Z,4.13
2023-04-16T05:37:02.753Z,3.20
2023-04-16T05:39:29.407Z,3.25
2023-04-16T05:41:56.075Z,3.50
2023-04-16T05:44:22.734Z,4.10
2023-04-16T05:46:49.367Z,4.00
2023-04-16T05:49:18.726Z,3.67
2023-04-16T05:51:45.602Z,2.95
2023-04-16T05:54:12.253Z,3.33
2023-04-16T05:56:38.970Z,4.00
2023-04-16T05:59:05.774Z,5.13
2023-04-16T06:01:35.199Z,9.35
2023-04-16T06:04:02.409Z,7.00
2023-04-16T06:08:55.909Z,6.20
2023-04-16T06:11:22.778Z,6.20
2023-04-16T06:13:49.613Z,6.15
2023-04-16T06:16:16.901Z,6.60
2023-04-16T06:21:10.276Z,7.40
2023-04-16T06:23:36.965Z,6.95
2023-04-16T06:26:04.347Z,7.25
2023-04-16T06:30:57.866Z,7.10
2023-04-16T06:33:24.552Z,8.57
2023-04-16T06:35:51.236Z,7.82
2023-04-16T06:38:18.533Z,7.38
2023-04-16T06:40:45.417Z,7.90
2023-04-16T06:43:12.176Z,7.53
2023-04-16T06:45:39.244Z,7.82
2023-04-16T06:48:06.029Z,7.07
2023-04-16T06:50:32.778Z,7.13
2023-04-16T06:52:59.506Z,7.47
2023-04-16T06:55:26.214Z,7.50
2023-04-16T06:57:52.882Z,6.85
2023-04-16T07:00:19.529Z,7.25
2023-04-16T07:02:46.537Z,6.82
2023-04-16T07:05:13.363Z,7.00
2023-04-16T07:07:40.046Z,7.03
2023-04-16T07:10:07.218Z,7.05
2023-04-16T07:12:34.038Z,6.63
2023-04-16T07:15:00.829Z,6.40
2023-04-16T07:17:27.623Z,6.47
2023-04-16T07:19:54.299Z,6.53
2023-04-16T07:22:21.381Z,5.15
2023-04-16T07:24:48.062Z,5.40
2023-04-16T07:27:14.724Z,6.38
2023-04-16T07:29:41.431Z,6.13
2023-04-16T07:32:09.358Z,6.82
2023-04-16T07:34:36.106Z,7.03
2023-04-16T07:37:02.783Z,7.47
2023-04-16T07:39:29.445Z,6.10
2023-04-16T07:41:56.303Z,4.93
2023-04-16T07:44:23.016Z,5.28
2023-04-16T07:46:49.768Z,4.90
2023-04-16T07:49:16.543Z,4.72
2023-04-16T07:51:43.349Z,4.10
2023-04-16T07:54:11.004Z,3.80
2023-04-16T07:56:37.779Z,3.78
2023-04-16T07:59:14.816Z,3.30
2023-04-16T08:01:48.387Z,3.13
2023-04-16T08:04:17.395Z,3.22
2023-04-16T08:06:44.193Z,2.70
2023-04-16T08:09:11.210Z,2.95
2023-04-16T08:11:38.040Z,2.80
2023-04-16T08:14:04.720Z,2.80
2023-04-16T08:16:31.479Z,2.75
2023-04-16T08:18:58.335Z,1.35
2023-04-16T08:21:25.077Z,2.17
2023-04-16T08:23:52.090Z,2.42
2023-04-16T08:26:18.751Z,2.30
2023-04-16T08:28:45.464Z,2.13
2023-04-16T08:31:12.250Z,2.53
2023-04-16T08:33:40.723Z,1.90
2023-04-16T08:36:07.512Z,2.40
2023-04-16T08:38:34.263Z,2.40
2023-04-16T08:41:05.667Z,2.80
2023-04-16T08:43:38.064Z,2.80
2023-04-16T08:46:05.866Z,2.58
2023-04-16T08:48:34.184Z,2.40
2023-04-16T08:51:02.239Z,2.80
2023-04-16T08:53:51.620Z,2.45
2023-04-16T08:56:21.086Z,2.85
2023-04-16T08:58:49.972Z,2.70
2023-04-16T09:01:18.384Z,2.65
2023-04-16T09:03:48.339Z,2.50
2023-04-16T09:06:16.342Z,2.53
2023-04-16T09:08:46.588Z,2.92
2023-04-16T09:11:20.360Z,2.28
2023-04-16T09:13:47.553Z,2.70
2023-04-16T09:16:15.262Z,2.17
2023-04-16T09:18:42.152Z,2.47
2023-04-16T09:21:10.520Z,2.35
2023-04-16T09:23:38.757Z,2.47
2023-04-16T09:26:06.041Z,2.50
2023-04-16T09:31:11.187Z,3.10
2023-04-16T09:33:37.971Z,2.60
2023-04-16T09:36:05.698Z,2.70
2023-04-16T09:38:51.441Z,2.78
2023-04-16T09:41:19.002Z,2.50
2023-04-16T09:44:05.080Z,2.42
2023-04-16T09:46:34.905Z,2.85
2023-04-16T09:49:14.872Z,2.58
2023-04-16T09:51:42.817Z,2.63
2023-04-16T09:54:09.839Z,2.45
2023-04-16T09:56:46.755Z,2.47
2023-04-16T09:59:21.097Z,2.38
2023-04-16T10:02:15.418Z,2.65
2023-04-16T10:04:51.360Z,2.58
2023-04-16T10:07:19.063Z,2.75
2023-04-16T10:09:48.533Z,2.47
2023-04-16T10:12:16.406Z,2.78
2023-04-16T10:14:43.228Z,1.90
2023-04-16T10:17:10.171Z,2.58
2023-04-16T10:19:37.475Z,2.25
2023-04-16T10:24:33.127Z,1.70
2023-04-16T10:27:00.631Z,1.60
2023-04-16T10:29:29.343Z,1.60
2023-04-16T10:31:56.920Z,1.67
2023-04-16T10:34:24.968Z,1.20
2023-04-16T10:36:53.235Z,1.58
2023-04-16T10:39:24.766Z,1.38
2023-04-16T10:42:10.582Z,1.27
2023-04-16T10:44:37.599Z,1.55
2023-04-16T10:47:12.223Z,1.52
2023-04-16T10:49:39.388Z,1.00
2023-04-16T10:52:22.288Z,0.90
2023-04-16T10:54:49.742Z,0.70
2023-04-16T10:57:18.195Z,0.77
2023-04-16T10:59:45.928Z,0.80
2023-04-16T11:02:17.503Z,0.60
2023-04-16T11:04:46.136Z,0.68
2023-04-16T11:07:19.244Z,0.60
2023-04-16T11:09:52.055Z,0.80
2023-04-16T11:12:23.201Z,0.70
2023-04-16T11:14:54.868Z,0.60
2023-04-16T11:17:22.351Z,0.50
2023-04-16T11:19:49.235Z,0.50
2023-04-16T11:22:17.624Z,0.75
2023-04-16T11:24:46.032Z,0.60
2023-04-16T11:27:14.394Z,0.40
2023-04-16T11:29:41.526Z,0.50
2023-04-16T11:32:08.453Z,0.30
2023-04-16T11:34:42.766Z,0.32
2023-04-16T11:37:09.444Z,0.47
2023-04-16T11:39:51.522Z,0.60
2023-04-16T11:42:26.919Z,0.60
2023-04-16T11:44:55.459Z,0.52
2023-04-16T11:47:25.464Z,0.50
2023-04-16T11:49:52.890Z,0.40
2023-04-16T11:54:54.399Z,0.43
2023-04-16T11:57:31.766Z,0.55
2023-04-16T12:00:01.725Z,0.40
2023-04-16T12:02:50.033Z,0.35
2023-04-16T12:05:31.596Z,0.30
2023-04-16T12:07:59.416Z,0.50
2023-04-16T12:10:27.175Z,0.35
2023-04-16T12:12:53.900Z,0.40
2023-04-16T12:15:20.669Z,0.40
2023-04-16T12:17:47.894Z,0.50
2023-04-16T12:22:47.765Z,0.40
2023-04-16T12:25:17.066Z,0.40
2023-04-16T12:27:47.564Z,0.30
2023-04-16T12:30:16.296Z,0.30
2023-04-16T12:32:44.869Z,0.40
2023-04-16T12:35:12.360Z,0.40
2023-04-16T12:37:39.677Z,0.40
2023-04-16T12:42:37.185Z,0.40
2023-04-16T12:45:05.536Z,0.43
2023-04-16T12:47:32.839Z,0.20
2023-04-16T12:52:26.346Z,0.20
2023-04-16T12:54:53.330Z,0.20
2023-04-16T12:57:19.998Z,0.28
2023-04-16T12:59:47.086Z,0.25
2023-04-16T13:02:13.969Z,0.20
2023-04-16T13:04:40.964Z,0.30
2023-04-16T13:07:07.970Z,0.30
2023-04-16T13:09:34.784Z,0.20
2023-04-16T13:12:01.545Z,0.40
2023-04-16T13:14:28.274Z,0.40
2023-04-16T13:16:55.152Z,0.20
2023-04-16T13:19:22.273Z,0.20
2023-04-16T13:21:48.973Z,0.30
2023-04-16T13:24:15.715Z,0.35
2023-04-16T13:26:43.288Z,0.30
2023-04-16T13:29:10.325Z,0.43
2023-04-16T13:31:38.004Z,0.28
2023-04-16T13:34:04.814Z,0.25
2023-04-16T13:36:32.972Z,0.25
2023-04-16T13:39:00.049Z,0.30
2023-04-16T13:41:26.843Z,0.30
2023-04-16T13:43:54.277Z,0.30
2023-04-16T13:48:47.796Z,0.38
2023-04-16T13:51:15.588Z,0.30
2023-04-16T13:53:42.261Z,0.40
2023-04-16T13:56:10.307Z,0.20
2023-04-16T13:58:37.174Z,0.10
2023-04-16T14:01:03.866Z,0.30
2023-04-16T14:03:32.371Z,0.30
2023-04-16T14:05:59.094Z,0.20
2023-04-16T14:08:25.753Z,0.20
2023-04-16T14:10:53.887Z,0.20
2023-04-16T14:13:21.899Z,0.28
2023-04-16T14:15:48.790Z,0.20
2023-04-16T14:18:15.576Z,0.40
2023-04-16T14:20:42.282Z,0.20
2023-04-16T14:23:08.982Z,0.47
2023-04-16T14:25:35.799Z,0.40
2023-04-16T14:28:02.461Z,0.30
2023-04-16T14:30:29.189Z,0.40
2023-04-16T14:32:55.895Z,0.32
2023-04-16T14:35:23.169Z,0.50
2023-04-16T14:37:49.959Z,0.40
2023-04-16T14:40:16.872Z,0.40
2023-04-16T14:42:43.576Z,0.40
2023-04-16T14:45:11.099Z,0.30
2023-04-16T14:47:38.475Z,0.40
2023-04-16T14:50:06.233Z,0.22
2023-04-16T14:52:32.993Z,0.40
2023-04-16T14:54:59.730Z,0.30
2023-04-16T14:57:26.755Z,0.40
2023-04-16T14:59:53.463Z,0.40
2023-04-16T15:02:20.423Z,0.35
2023-04-16T15:04:47.259Z,0.38
2023-04-16T15:07:13.939Z,0.70
2023-04-16T15:09:40.661Z,0.30
2023-04-16T15:12:07.413Z,0.45
2023-04-16T15:14:34.073Z,0.30
2023-04-16T15:17:00.884Z,0.40
2023-04-16T15:19:27.653Z,0.30
2023-04-16T15:21:55.779Z,0.30
2023-04-16T15:24:22.586Z,0.50
2023-04-16T15:26:49.272Z,0.52
2023-04-16T15:29:15.957Z,0.50
2023-04-16T15:31:42.740Z,0.40
2023-04-16T15:34:09.680Z,0.55
2023-04-16T15:36:36.490Z,0.43
2023-04-16T15:39:03.300Z,0.35
2023-04-16T15:41:31.822Z,0.40
2023-04-16T15:43:58.517Z,0.32
2023-04-16T15:46:25.653Z,0.40
2023-04-16T15:48:52.314Z,0.30
2023-04-16T15:51:19.002Z,0.32
2023-04-16T15:53:45.873Z,0.32
2023-04-16T15:56:12.575Z,0.50
2023-04-16T15:58:39.388Z,0.43
2023-04-16T16:01:06.072Z,0.50
2023-04-16T16:03:33.896Z,0.30
2023-04-16T16:06:01.610Z,0.40
2023-04-16T16:08:29.489Z,0.43
2023-04-16T16:10:56.369Z,0.50
2023-04-16T16:13:23.155Z,0.25
2023-04-16T16:15:50.732Z,0.30
2023-04-16T16:18:17.459Z,0.20
2023-04-16T16:20:44.219Z,0.30
2023-04-16T16:23:11.465Z,0.30
2023-04-16T16:25:38.321Z,0.30
2023-04-16T16:28:06.647Z,0.20
2023-04-16T16:30:33.827Z,0.20
2023-04-16T16:33:00.741Z,0.20
2023-04-16T16:35:27.447Z,0.30
2023-04-16T16:37:57.072Z,0.30
2023-04-16T16:40:23.855Z,0.40
2023-04-16T16:42:50.625Z,0.28
2023-04-16T16:45:17.452Z,0.30
2023-04-16T16:47:44.209Z,0.20
2023-04-16T16:50:11.552Z,0.30
2023-04-16T16:55:08.570Z,0.38
2023-04-16T16:57:35.455Z,0.30
2023-04-16T17:00:02.226Z,0.45
2023-04-16T17:02:29.156Z,0.40
2023-04-16T17:04:58.829Z,0.30
2023-04-16T17:07:25.620Z,0.45
2023-04-16T17:09:52.275Z,0.40
2023-04-16T17:12:18.936Z,0.22
2023-04-16T17:14:50.008Z,0.20
2023-04-16T17:17:16.738Z,0.28
2023-04-16T17:19:44.103Z,0.30
2023-04-16T17:24:37.429Z,0.28
2023-04-16T17:27:04.395Z,0.20
2023-04-16T17:29:31.402Z,0.30
2023-04-16T17:31:58.183Z,0.40
2023-04-16T17:34:24.878Z,0.20
2023-04-16T17:36:51.550Z,0.25
2023-04-16T17:39:18.928Z,0.40
2023-04-16T17:44:12.597Z,0.40
2023-04-16T17:49:06.298Z,0.60
2023-04-16T17:51:33.132Z,0.40
2023-04-16T17:53:59.821Z,0.55
2023-04-16T17:56:27.213Z,0.60
2023-04-16T18:01:20.571Z,0.40
2023-04-16T18:03:47.434Z,0.50
2023-04-16T18:06:14.355Z,0.45
2023-04-16T18:08:41.022Z,0.50
2023-04-16T18:11:08.519Z,1.00
2023-04-16T18:13:35.623Z,0.70
2023-04-16T18:16:02.904Z,0.80
2023-04-16T18:20:56.296Z,0.70
2023-04-16T18:23:22.941Z,0.70
2023-04-16T18:25:49.661Z,0.52
2023-04-16T18:28:17.545Z,0.52
2023-04-16T18:30:44.367Z,0.50
2023-04-16T18:33:43.572Z,0.60
2023-04-16T18:36:02.230Z,0.60
2023-04-16T18:38:32.341Z,0.90
2023-04-16T18:40:59.472Z,0.60
2023-04-16T18:43:26.252Z,1.23
2023-04-16T18:45:52.899Z,1.05
2023-04-16T18:48:19.531Z,1.05
2023-04-16T18:50:46.286Z,1.83
2023-04-16T18:53:12.948Z,2.22
2023-04-16T18:55:39.626Z,2.22
2023-04-16T18:58:06.324Z,2.50
2023-04-16T19:00:33.034Z,3.28
2023-04-16T19:02:59.740Z,1.75
2023-04-16T19:05:26.458Z,1.80
2023-04-16T19:07:53.148Z,1.85
2023-04-16T19:10:19.852Z,0.98
2023-04-16T19:12:46.495Z,1.20
2023-04-16T19:15:14.596Z,1.17
2023-04-16T19:17:41.599Z,1.20
2023-04-16T19:20:11.156Z,1.55
2023-04-16T19:22:38.398Z,1.10
2023-04-16T19:25:06.104Z,1.15
2023-04-16T19:27:32.950Z,0.80
2023-04-16T19:29:59.676Z,0.85
2023-04-16T19:32:26.600Z,0.90
2023-04-16T19:34:53.284Z,1.25
2023-04-16T19:37:19.993Z,1.77
2023-04-16T19:39:46.757Z,1.27
2023-04-16T19:42:13.515Z,1.20
2023-04-16T19:44:40.215Z,1.00
2023-04-16T19:47:06.936Z,1.90
2023-04-16T19:49:34.614Z,1.70
2023-04-16T19:52:01.571Z,1.92
2023-04-16T19:54:28.749Z,1.70
2023-04-16T19:56:55.546Z,1.70
2023-04-16T19:59:22.301Z,1.25
2023-04-16T20:01:49.030Z,1.63
2023-04-16T20:04:15.839Z,1.40
2023-04-16T20:06:42.533Z,1.08
2023-04-16T20:09:09.354Z,1.20
2023-04-16T20:11:36.607Z,1.83
2023-04-16T20:14:03.348Z,1.30
2023-04-16T20:16:31.551Z,1.45
2023-04-16T20:19:03.535Z,1.08
2023-04-16T20:21:31.898Z,1.73
2023-04-16T20:26:33.992Z,1.60
2023-04-16T20:29:01.035Z,1.90
2023-04-16T20:31:27.794Z,1.92
2023-04-16T20:33:54.808Z,1.90
2023-04-16T20:36:21.694Z,2.03
2023-04-16T20:38:48.354Z,1.83
2023-04-16T20:41:21.044Z,2.83
2023-04-16T20:43:49.918Z,6.10
2023-04-16T20:46:17.702Z,6.95
2023-04-16T20:48:44.679Z,4.35
2023-04-16T20:51:11.426Z,4.75
2023-04-16T20:53:38.300Z,4.65
2023-04-16T20:56:06.623Z,4.20
2023-04-16T20:58:33.419Z,4.05
2023-04-16T21:01:00.379Z,3.70
2023-04-16T21:03:27.325Z,3.28
2023-04-16T21:05:55.361Z,3.58
2023-04-16T21:08:23.089Z,3.33
2023-04-16T21:10:50.539Z,2.58
2023-04-16T21:13:17.310Z,3.80
2023-04-16T21:15:44.782Z,2.65
2023-04-16T21:18:11.949Z,1.80
2023-04-16T21:20:39.364Z,1.38
2023-04-16T21:23:07.328Z,1.30
2023-04-16T21:25:34.043Z,1.60
2023-04-16T21:28:00.707Z,1.52
2023-04-16T21:30:27.471Z,1.50
2023-04-16T21:32:54.832Z,1.60
2023-04-16T21:35:21.582Z,1.83
2023-04-16T21:37:48.293Z,2.65
2023-04-16T21:40:15.062Z,2.22
2023-04-16T21:42:42.344Z,2.47
2023-04-16T21:45:10.428Z,2.10
2023-04-16T21:47:37.924Z,1.65
2023-04-16T21:50:05.057Z,2.17
2023-04-16T21:52:32.804Z,2.00
2023-04-16T21:55:00.595Z,1.80
2023-04-16T21:57:27.290Z,3.03
2023-04-16T21:59:54.154Z,2.83
2023-04-16T22:02:21.040Z,3.50
2023-04-16T22:04:48.605Z,1.83
2023-04-16T22:07:16.797Z,1.67
2023-04-16T22:09:43.689Z,1.40
2023-04-16T22:12:10.487Z,1.48
2023-04-16T22:14:42.111Z,1.13
2023-04-16T22:17:13.066Z,1.08
2023-04-16T22:19:39.842Z,1.05
2023-04-16T22:22:06.563Z,1.10
2023-04-16T22:24:33.615Z,0.82
2023-04-16T22:27:01.245Z,1.08
2023-04-16T22:29:27.942Z,1.10
2023-04-16T22:31:55.200Z,1.05
2023-04-16T22:36:48.723Z,1.00
2023-04-16T22:39:15.524Z,1.00
2023-04-16T22:41:42.175Z,1.20
2023-04-16T22:44:08.918Z,1.00
2023-04-16T22:46:35.922Z,1.10
2023-04-16T22:49:02.684Z,0.98
2023-04-16T22:51:30.099Z,1.33
2023-04-16T22:53:56.751Z,1.13
2023-04-16T22:56:28.518Z,1.00
2023-04-16T22:58:55.355Z,0.75
2023-04-16T23:01:22.306Z,0.77
2023-04-16T23:03:49.329Z,0.60
2023-04-16T23:06:16.283Z,0.57
2023-04-16T23:08:42.967Z,0.90
2023-04-16T23:11:09.676Z,0.52
2023-04-16T23:13:36.401Z,0.47
2023-04-16T23:16:03.146Z,0.60
2023-04-16T23:18:29.833Z,0.80
2023-04-16T23:20:56.531Z,0.68
2023-04-16T23:23:23.189Z,0.98
2023-04-16T23:25:53.424Z,0.75
2023-04-16T23:28:20.690Z,0.30
2023-04-16T23:30:50.792Z,0.65
2023-04-16T23:33:17.518Z,0.50
2023-04-16T23:35:44.187Z,0.43
2023-04-16T23:38:10.834Z,0.45
2023-04-16T23:40:37.652Z,0.30
2023-04-16T23:43:04.386Z,0.20
2023-04-16T23:45:31.143Z,0.20
2023-04-16T23:47:57.903Z,0.35
2023-04-16T23:50:24.576Z,0.28
2023-04-16T23:52:51.447Z,0.50
2023-04-16T23:55:18.119Z,0.40
2023-04-16T23:57:44.791Z,0.35
